Air Force Village West, CA

10:23 PM PST on February 07, 2016 (GMT -0800)
Orangecrest | | Change Station
CLOSE
Current Station
Personal Weather Station
Location: Riverside, CA
Elevation: 1683 ft
Nearby Weather Stations
Active Advisory: High Wind Warning

Elev 1683 ft 33.90 °N, 117.30 °W | Updated 9 minutes ago

Clear
Clear
64.1 °F
Feels Like 64.1 °F
N
3.0
Wind Variable Wind from SE
Gusts 5.0 mph

Today
High -- | Low -- °F
--% Chance of Precip.
Yesterday
High -- | Low -- °F
Precip. -- in
Pressure 30.17 in
Visibility 10.0 miles
Clouds Clear
Dew Point 20 °F
Humidity 18%
Rainfall 0.00 in
Snow Depth Not available.
6:41 AM 5:25 PM
Waning Crescent, 0% visible
METAR KRIV 080558Z AUTO 35009KT 10SM CLR 17/M09 A3019 RMK AO2 SLP215 T01661086 10255 20124 50006
Pressure 30.17 in
Visibility 10.0 miles
Clouds Clear
Dew Point 20 °F
Humidity 18%
Rainfall 0.00 in
Snow Depth Not available.
6:41 AM 5:25 PM
Waning Crescent, 0% visible
METAR KRIV 080558Z AUTO 35009KT 10SM CLR 17/M09 A3019 RMK AO2 SLP215 T01661086 10255 20124 50006

10-Day Weather Forecast

Almanac

Astronomy

Feb. 07, 2016 Rise Set
Actual Time
Civil Twilight
Nautical Twilight
Astronomical Twilight
Moon
Length of Visible Light
Length of Day
Tomorrow will be .
, % of the Moon is Illuminated

Today's Extremes

State Highs State Lows

Community

WunderPhotos

Upload Photos

1,891,393 photos uploaded!

WunderBlog® & News

Nearby

Air Quality

  Air Quality AQ Index Pollutant
Not available.

Snow Depth

Station Depth Elevation

Earthquake Activity

City Distance Mag. Time & Date
Minimum magnitude displayed is 2.5.

Coastal Water Temperatures

Place Temperature

Stations

Nearby Weather Stations

Station Location Temp. Windchill Dew Point Humidity Wind Precip. Elev Updated Type
                   

Watches & Warnings

High Wind Warning
Issued: 9:00 PM PST Feb. 7, 2016 – National Weather Service

... High Wind Warning remains in effect until 4 PM PST Monday...

* winds... east to northeast 30 to 40 mph with gusts 55 to 65
mph. Locally higher gusts will be possible.

* Timing... winds increasing through this evening... peaking early
Monday morning... then weakening into Tuesday.

* Location... along the coastal mountain slopes and foothills and
below favored passes and canyons.

* Visibility... locally reduced in blowing dust.

* Impacts... strong cross winds will be a potential hazard for
high profile vehicles. Broken tree limbs and other unsecured
yard and construction site debris may be blown about and
impede traffic on roadways.

* Outlook... winds will weaken below high wind criteria late
Monday afternoon... however advisory strength winds may
continue in some areas through Tuesday morning.

Precautionary/preparedness actions...

A High Wind Warning means a hazardous high wind event is expected
or occurring. Sustained wind speeds of at least 40 mph or gusts
of 58 mph or more can lead to property damage.